Zhytomyr, Ukraine
Current Conditions -  °F | °C
As of 10:00 PM on Saturday 27 Dec 2014 (Local Time) from UKKM Reporting Station
NA  
Wind Chill: 13°   Ceiling: NA
Heat Index: 21°   Visibility: 6mi
Dew Point: 18°   Wind: 7mph
Humidity: 86%   Direction: 50°NE
Pressure: 29.91"   Gusts: NA
Location:  50.25°N, 28.67°E
Report Text: UKKM 271900Z AUTO 05003MPS 010V080 9999 ///013 M06/M08 Q1013
Loading
Personal Weather Stations






























Interactive Weather Map New forecast layout! Learn more

10-Day Weather Forecast

Advertisements
Track Severe Weather on mobile